sensor_id;sensor_type;location;lat;lon;timestamp;pressure;altitude;pressure_sealevel;temperature;humidity
44144;BME280;43510;51.920;4.492;2022-09-06T00:02:11;68322.97;;;22.26;87.29
44144;BME280;43510;51.920;4.492;2022-09-06T00:04:36;68323.53;;;22.26;87.88
44144;BME280;43510;51.920;4.492;2022-09-06T00:07:01;68319.84;;;22.18;88.65
44144;BME280;43510;51.920;4.492;2022-09-06T00:09:27;68313.81;;;22.15;88.28
44144;BME280;43510;51.920;4.492;2022-09-06T00:11:52;68318.72;;;22.17;88.36
44144;BME280;43510;51.920;4.492;2022-09-06T00:14:17;68307.91;;;22.15;87.72
44144;BME280;43510;51.920;4.492;2022-09-06T00:16:44;68304.41;;;22.09;87.89
44144;BME280;43510;51.920;4.492;2022-09-06T00:19:09;68290.16;;;21.94;89.37
44144;BME280;43510;51.920;4.492;2022-09-06T00:21:35;68262.88;;;21.74;90.15
44144;BME280;43510;51.920;4.492;2022-09-06T00:24:00;68258.63;;;21.66;91.05
44144;BME280;43510;51.920;4.492;2022-09-06T00:26:26;68254.81;;;21.65;91.37
44144;BME280;43510;51.920;4.492;2022-09-06T00:28:51;68248.06;;;21.58;91.74
44144;BME280;43510;51.920;4.492;2022-09-06T00:31:20;68238.78;;;21.45;92.30
44144;BME280;43510;51.920;4.492;2022-09-06T00:33:46;68189.53;;;21.06;92.94
44144;BME280;43510;51.920;4.492;2022-09-06T00:36:12;68152.84;;;20.70;94.11
44144;BME280;43510;51.920;4.492;2022-09-06T00:38:37;68134.84;;;20.54;98.14
44144;BME280;43510;51.920;4.492;2022-09-06T00:41:05;68095.31;;;20.16;100.00
44144;BME280;43510;51.920;4.492;2022-09-06T00:43:30;68065.09;;;19.91;100.00
44144;BME280;43510;51.920;4.492;2022-09-06T00:45:56;68062.88;;;19.89;100.00
44144;BME280;43510;51.920;4.492;2022-09-06T00:48:22;68051.75;;;19.82;100.00
44144;BME280;43510;51.920;4.492;2022-09-06T00:50:49;68043.72;;;19.72;100.00
44144;BME280;43510;51.920;4.492;2022-09-06T00:53:16;68036.03;;;19.68;100.00
44144;BME280;43510;51.920;4.492;2022-09-06T00:55:43;68035.47;;;19.67;100.00
44144;BME280;43510;51.920;4.492;2022-09-06T00:58:09;68043.31;;;19.74;100.00
44144;BME280;43510;51.920;4.492;2022-09-06T01:00:35;68046.00;;;19.74;100.00
44144;BME280;43510;51.920;4.492;2022-09-06T01:03:02;68064.53;;;19.91;100.00
44144;BME280;43510;51.920;4.492;2022-09-06T01:05:38;68098.81;;;20.22;100.00
44144;BME280;43510;51.920;4.492;2022-09-06T01:08:15;68143.97;;;20.65;100.00
44144;BME280;43510;51.920;4.492;2022-09-06T01:16:16;68235.69;;;21.47;97.36
44144;BME280;43510;51.920;4.492;2022-09-06T01:24:41;68292.44;;;21.96;92.06
44144;BME280;43510;51.920;4.492;2022-09-06T01:30:01;68294.13;;;21.97;90.37
44144;BME280;43510;51.920;4.492;2022-09-06T01:33:02;68317.19;;;22.18;89.96
44144;BME280;43510;51.920;4.492;2022-09-06T01:36:01;68314.22;;;22.13;87.79
44144;BME280;43510;51.920;4.492;2022-09-06T01:38:29;68302.13;;;22.07;86.99
44144;BME280;43510;51.920;4.492;2022-09-06T01:40:54;68299.88;;;22.05;86.31
44144;BME280;43510;51.920;4.492;2022-09-06T01:43:26;68308.91;;;22.13;85.68
44144;BME280;43510;51.920;4.492;2022-09-06T01:46:18;68316.78;;;22.20;84.30
44144;BME280;43510;51.920;4.492;2022-09-06T02:00:08;68335.75;;;22.35;83.73
44144;BME280;43510;51.920;4.492;2022-09-06T02:05:40;68337.06;;;22.38;83.19
44144;BME280;43510;51.920;4.492;2022-09-06T02:08:10;68332.53;;;22.34;83.18
44144;BME280;43510;51.920;4.492;2022-09-06T02:10:43;68332.25;;;22.29;83.13
44144;BME280;43510;51.920;4.492;2022-09-06T02:13:11;68331.69;;;22.29;83.77
44144;BME280;43510;51.920;4.492;2022-09-06T02:15:43;68333.38;;;22.30;83.71
44144;BME280;43510;51.920;4.492;2022-09-06T02:18:17;68327.47;;;22.30;84.26
44144;BME280;43510;51.920;4.492;2022-09-06T02:20:51;68322.81;;;22.23;85.20
44144;BME280;43510;51.920;4.492;2022-09-06T02:23:19;68309.47;;;22.14;85.10
44144;BME280;43510;51.920;4.492;2022-09-06T02:25:54;68305.53;;;22.10;86.34
44144;BME280;43510;51.920;4.492;2022-09-06T02:28:22;68296.22;;;21.97;86.16
44144;BME280;43510;51.920;4.492;2022-09-06T02:30:50;68279.34;;;21.91;87.07
44144;BME280;43510;51.920;4.492;2022-09-06T02:33:23;68278.47;;;21.86;87.07
44144;BME280;43510;51.920;4.492;2022-09-06T02:35:51;68280.16;;;21.87;87.92
44144;BME280;43510;51.920;4.492;2022-09-06T02:38:20;68278.72;;;21.81;87.54
44144;BME280;43510;51.920;4.492;2022-09-06T02:40:47;68275.94;;;21.79;88.35
44144;BME280;43510;51.920;4.492;2022-09-06T02:43:14;68264.41;;;21.73;88.39
44144;BME280;43510;51.920;4.492;2022-09-06T02:45:39;68265.78;;;21.70;88.94
44144;BME280;43510;51.920;4.492;2022-09-06T02:48:04;68260.88;;;21.68;88.77
44144;BME280;43510;51.920;4.492;2022-09-06T02:50:30;68258.06;;;21.65;90.07
44144;BME280;43510;51.920;4.492;2022-09-06T02:53:12;68265.78;;;21.70;89.66
44144;BME280;43510;51.920;4.492;2022-09-06T02:55:38;68250.34;;;21.61;90.25
44144;BME280;43510;51.920;4.492;2022-09-06T02:58:05;68243.03;;;21.54;89.93
44144;BME280;43510;51.920;4.492;2022-09-06T03:00:31;68255.66;;;21.61;89.79
44144;BME280;43510;51.920;4.492;2022-09-06T03:02:56;68247.50;;;21.58;89.81
44144;BME280;43510;51.920;4.492;2022-09-06T03:05:22;68241.31;;;21.52;91.04
44144;BME280;43510;51.920;4.492;2022-09-06T03:07:48;68246.09;;;21.52;91.24
44144;BME280;43510;51.920;4.492;2022-09-06T03:10:14;68244.56;;;21.53;91.58
44144;BME280;43510;51.920;4.492;2022-09-06T03:12:44;68241.31;;;21.52;91.54
44144;BME280;43510;51.920;4.492;2022-09-06T03:15:11;68239.66;;;21.51;91.98
44144;BME280;43510;51.920;4.492;2022-09-06T03:17:38;68243.59;;;21.54;91.37
44144;BME280;43510;51.920;4.492;2022-09-06T03:20:04;68238.53;;;21.50;91.36
44144;BME280;43510;51.920;4.492;2022-09-06T03:22:29;68244.00;;;21.52;92.03
44144;BME280;43510;51.920;4.492;2022-09-06T03:24:55;68231.03;;;21.41;91.78
44144;BME280;43510;51.920;4.492;2022-09-06T03:27:21;68233.44;;;21.45;91.71
44144;BME280;43510;51.920;4.492;2022-09-06T03:29:47;68233.44;;;21.45;91.75
44144;BME280;43510;51.920;4.492;2022-09-06T03:32:12;68240.19;;;21.51;92.33
44144;BME280;43510;51.920;4.492;2022-09-06T03:34:37;68238.53;;;21.50;92.68
44144;BME280;43510;51.920;4.492;2022-09-06T03:37:03;68244.72;;;21.55;92.81
44144;BME280;43510;51.920;4.492;2022-09-06T03:39:28;68249.63;;;21.57;92.41
44144;BME280;43510;51.920;4.492;2022-09-06T03:41:53;68249.63;;;21.57;92.56
44144;BME280;43510;51.920;4.492;2022-09-06T03:44:19;68239.66;;;21.51;92.74
44144;BME280;43510;51.920;4.492;2022-09-06T03:46:44;68234.16;;;21.48;92.11
44144;BME280;43510;51.920;4.492;2022-09-06T03:49:10;68248.50;;;21.56;91.60
44144;BME280;43510;51.920;4.492;2022-09-06T03:51:35;68249.06;;;21.57;91.20
44144;BME280;43510;51.920;4.492;2022-09-06T03:54:01;68253.00;;;21.61;91.02
44144;BME280;43510;51.920;4.492;2022-09-06T03:56:26;68227.81;;;21.40;92.34
44144;BME280;43510;51.920;4.492;2022-09-06T03:58:52;68213.19;;;21.27;93.48
44144;BME280;43510;51.920;4.492;2022-09-06T04:01:17;68203.78;;;21.21;93.89
44144;BME280;43510;51.920;4.492;2022-09-06T04:03:43;68206.84;;;21.19;94.80
44144;BME280;43510;51.920;4.492;2022-09-06T04:06:09;68206.44;;;21.21;94.80
44144;BME280;43510;51.920;4.492;2022-09-06T04:08:34;68211.50;;;21.26;95.43
44144;BME280;43510;51.920;4.492;2022-09-06T04:11:00;68199.53;;;21.12;96.07
44144;BME280;43510;51.920;4.492;2022-09-06T04:13:27;68166.19;;;20.80;100.00
44144;BME280;43510;51.920;4.492;2022-09-06T04:15:53;68144.38;;;20.63;100.00
44144;BME280;43510;51.920;4.492;2022-09-06T04:18:19;68135.53;;;20.57;100.00
44144;BME280;43510;51.920;4.492;2022-09-06T04:20:50;68132.03;;;20.52;100.00
44144;BME280;43510;51.920;4.492;2022-09-06T04:23:16;68123.19;;;20.46;100.00
44144;BME280;43510;51.920;4.492;2022-09-06T04:25:46;68122.63;;;20.46;100.00
44144;BME280;43510;51.920;4.492;2022-09-06T04:28:12;68104.59;;;20.29;100.00
44144;BME280;43510;51.920;4.492;2022-09-06T04:30:37;68105.72;;;20.30;100.00
44144;BME280;43510;51.920;4.492;2022-09-06T04:33:02;68118.38;;;20.37;100.00
44144;BME280;43510;51.920;4.492;2022-09-06T04:35:28;68113.06;;;20.37;100.00
44144;BME280;43510;51.920;4.492;2022-09-06T04:37:53;68115.16;;;20.36;100.00
44144;BME280;43510;51.920;4.492;2022-09-06T04:40:19;68127.94;;;20.46;100.00
44144;BME280;43510;51.920;4.492;2022-09-06T04:42:44;68133.16;;;20.53;100.00
44144;BME280;43510;51.920;4.492;2022-09-06T04:45:10;68134.84;;;20.54;100.00
44144;BME280;43510;51.920;4.492;2022-09-06T04:47:35;68140.88;;;20.57;100.00
44144;BME280;43510;51.920;4.492;2022-09-06T04:50:00;68136.66;;;20.58;100.00
44144;BME280;43510;51.920;4.492;2022-09-06T04:52:26;68142.72;;;20.61;100.00
44144;BME280;43510;51.920;4.492;2022-09-06T04:54:51;68148.34;;;20.66;100.00
44144;BME280;43510;51.920;4.492;2022-09-06T04:57:16;68138.78;;;20.58;100.00
44144;BME280;43510;51.920;4.492;2022-09-06T04:59:42;68138.94;;;20.60;100.00
44144;BME280;43510;51.920;4.492;2022-09-06T05:02:07;68142.28;;;20.63;100.00
44144;BME280;43510;51.920;4.492;2022-09-06T05:04:33;68148.34;;;20.66;100.00
44144;BME280;43510;51.920;4.492;2022-09-06T05:07:03;68150.72;;;20.71;100.00
44144;BME280;43510;51.920;4.492;2022-09-06T05:09:29;68151.28;;;20.71;100.00
44144;BME280;43510;51.920;4.492;2022-09-06T05:11:55;68147.91;;;20.68;100.00
44144;BME280;43510;51.920;4.492;2022-09-06T05:14:20;68151.28;;;20.71;100.00
44144;BME280;43510;51.920;4.492;2022-09-06T05:16:46;68154.53;;;20.72;100.00
44144;BME280;43510;51.920;4.492;2022-09-06T05:19:11;68155.78;;;20.75;100.00
44144;BME280;43510;51.920;4.492;2022-09-06T05:21:37;68159.19;;;20.78;100.00
44144;BME280;43510;51.920;4.492;2022-09-06T05:24:05;68167.47;;;20.84;100.00
44144;BME280;43510;51.920;4.492;2022-09-06T05:26:30;68169.69;;;20.86;100.00
44144;BME280;43510;51.920;4.492;2022-09-06T05:28:55;68173.78;;;20.92;100.00
44144;BME280;43510;51.920;4.492;2022-09-06T05:31:32;68187.72;;;21.02;100.00
44144;BME280;43510;51.920;4.492;2022-09-06T05:33:58;68191.81;;;21.08;100.00
44144;BME280;43510;51.920;4.492;2022-09-06T05:36:28;68192.78;;;21.06;100.00
44144;BME280;43510;51.920;4.492;2022-09-06T05:38:54;68189.53;;;21.06;100.00
44144;BME280;43510;51.920;4.492;2022-09-06T05:41:21;68186.19;;;21.03;100.00
44144;BME280;43510;51.920;4.492;2022-09-06T05:43:47;68196.13;;;21.09;100.00
44144;BME280;43510;51.920;4.492;2022-09-06T05:46:12;68198.97;;;21.12;100.00
44144;BME280;43510;51.920;4.492;2022-09-06T05:48:38;68201.94;;;21.17;100.00
44144;BME280;43510;51.920;4.492;2022-09-06T05:51:04;68210.94;;;21.25;100.00
44144;BME280;43510;51.920;4.492;2022-09-06T05:53:41;68219.94;;;21.33;100.00
44144;BME280;43510;51.920;4.492;2022-09-06T05:56:07;68232.75;;;21.42;100.00
44144;BME280;43510;51.920;4.492;2022-09-06T05:58:33;68236.09;;;21.45;100.00
44144;BME280;43510;51.920;4.492;2022-09-06T06:03:40;68250.75;;;21.58;98.52
44144;BME280;43510;51.920;4.492;2022-09-06T06:06:07;68265.38;;;21.72;97.80
44144;BME280;43510;51.920;4.492;2022-09-06T06:08:34;68284.09;;;21.91;97.09
44144;BME280;43510;51.920;4.492;2022-09-06T06:11:00;68299.06;;;22.09;95.46
44144;BME280;43510;51.920;4.492;2022-09-06T06:13:27;68325.78;;;22.28;93.55
44144;BME280;43510;51.920;4.492;2022-09-06T06:15:54;68357.03;;;22.52;91.86
44144;BME280;43510;51.920;4.492;2022-09-06T06:18:20;68361.81;;;22.61;90.36
44144;BME280;43510;51.920;4.492;2022-09-06T06:20:46;68369.44;;;22.63;89.37
44144;BME280;43510;51.920;4.492;2022-09-06T06:23:13;68378.19;;;22.75;88.96
44144;BME280;43510;51.920;4.492;2022-09-06T06:25:39;68398.88;;;22.92;87.90
44144;BME280;43510;51.920;4.492;2022-09-06T06:28:04;68406.22;;;22.98;87.93
44144;BME280;43510;51.920;4.492;2022-09-06T06:30:30;68404.09;;;22.99;88.07
44144;BME280;43510;51.920;4.492;2022-09-06T06:32:55;68399.00;;;22.94;88.29
44144;BME280;43510;51.920;4.492;2022-09-06T06:35:22;68399.56;;;22.95;88.32
44144;BME280;43510;51.920;4.492;2022-09-06T06:37:48;68410.00;;;22.99;87.90
44144;BME280;43510;51.920;4.492;2022-09-06T06:40:13;68411.44;;;23.05;88.10
44144;BME280;43510;51.920;4.492;2022-09-06T06:42:41;68425.22;;;23.13;88.53
44144;BME280;43510;51.920;4.492;2022-09-06T06:45:07;68419.28;;;23.12;87.49
44144;BME280;43510;51.920;4.492;2022-09-06T06:47:32;68421.56;;;23.14;87.93
44144;BME280;43510;51.920;4.492;2022-09-06T06:49:58;68427.19;;;23.19;86.66
44144;BME280;43510;51.920;4.492;2022-09-06T06:52:23;68431.00;;;23.20;85.74
44144;BME280;43510;51.920;4.492;2022-09-06T06:54:49;68433.53;;;23.28;85.59
44144;BME280;43510;51.920;4.492;2022-09-06T06:57:15;68451.28;;;23.39;84.60
44144;BME280;43510;51.920;4.492;2022-09-06T06:59:40;68461.03;;;23.50;84.76
44144;BME280;43510;51.920;4.492;2022-09-06T07:02:08;68471.59;;;23.57;83.71
44144;BME280;43510;51.920;4.492;2022-09-06T07:04:34;68493.72;;;23.79;83.07
44144;BME280;43510;51.920;4.492;2022-09-06T07:06:59;68503.88;;;23.88;82.30
44144;BME280;43510;51.920;4.492;2022-09-06T07:09:25;68537.97;;;24.14;81.35
44144;BME280;43510;51.920;4.492;2022-09-06T07:11:52;68539.97;;;24.21;80.71
44144;BME280;43510;51.920;4.492;2022-09-06T07:14:17;68535.44;;;24.17;80.39
44144;BME280;43510;51.920;4.492;2022-09-06T07:16:43;68539.97;;;24.21;80.93
44144;BME280;43510;51.920;4.492;2022-09-06T07:19:09;68487.94;;;23.72;81.73
44144;BME280;43510;51.920;4.492;2022-09-06T07:21:34;68496.53;;;23.82;81.94
44144;BME280;43510;51.920;4.492;2022-09-06T07:24:00;68537.72;;;24.19;80.67
44144;BME280;43510;51.920;4.492;2022-09-06T07:26:28;68548.44;;;24.28;79.63
44144;BME280;43510;51.920;4.492;2022-09-06T07:28:55;68556.31;;;24.35;79.95
44144;BME280;43510;51.920;4.492;2022-09-06T07:31:20;68569.72;;;24.45;79.94
44144;BME280;43510;51.920;4.492;2022-09-06T07:33:46;68570.44;;;24.48;79.64
44144;BME280;43510;51.920;4.492;2022-09-06T07:36:11;68580.00;;;24.57;79.25
44144;BME280;43510;51.920;4.492;2022-09-06T07:38:37;68581.13;;;24.58;78.35
44144;BME280;43510;51.920;4.492;2022-09-06T07:41:04;68575.34;;;24.50;79.06
44144;BME280;43510;51.920;4.492;2022-09-06T07:43:31;68573.81;;;24.51;79.15
44144;BME280;43510;51.920;4.492;2022-09-06T07:46:14;68573.25;;;24.51;78.86
44144;BME280;43510;51.920;4.492;2022-09-06T07:48:42;68568.59;;;24.44;79.64
44144;BME280;43510;51.920;4.492;2022-09-06T07:51:11;68565.50;;;24.46;79.72
44144;BME280;43510;51.920;4.492;2022-09-06T07:53:39;68584.94;;;24.59;79.79
44144;BME280;43510;51.920;4.492;2022-09-06T07:56:07;68598.06;;;24.73;79.93
44144;BME280;43510;51.920;4.492;2022-09-06T07:58:34;68618.25;;;24.89;78.57
44144;BME280;43510;51.920;4.492;2022-09-06T08:03:59;68666.22;;;25.32;77.51
44144;BME280;43510;51.920;4.492;2022-09-06T08:06:27;68676.50;;;25.43;75.75
44144;BME280;43510;51.920;4.492;2022-09-06T08:08:53;68658.44;;;25.27;75.84
44144;BME280;43510;51.920;4.492;2022-09-06T08:11:20;68637.00;;;25.08;75.55
44144;BME280;43510;51.920;4.492;2022-09-06T08:13:49;68615.56;;;24.89;76.55
44144;BME280;43510;51.920;4.492;2022-09-06T08:16:15;68613.84;;;24.87;76.53
44144;BME280;43510;51.920;4.492;2022-09-06T08:18:42;68622.34;;;24.95;76.97
44144;BME280;43510;51.920;4.492;2022-09-06T08:21:10;68620.94;;;24.89;76.88
44144;BME280;43510;51.920;4.492;2022-09-06T08:23:37;68612.91;;;24.89;77.54
44144;BME280;43510;51.920;4.492;2022-09-06T08:26:03;68621.22;;;24.94;78.07
44144;BME280;43510;51.920;4.492;2022-09-06T08:28:29;68605.25;;;24.77;77.50
44144;BME280;43510;51.920;4.492;2022-09-06T08:30:55;68590.75;;;24.66;78.13
44144;BME280;43510;51.920;4.492;2022-09-06T08:33:29;68603.56;;;24.75;78.68
44144;BME280;43510;51.920;4.492;2022-09-06T08:35:58;68620.06;;;24.93;77.82
44144;BME280;43510;51.920;4.492;2022-09-06T08:38:24;68632.38;;;25.01;77.37
44144;BME280;43510;51.920;4.492;2022-09-06T08:40:50;68640.81;;;25.09;76.66
44144;BME280;43510;51.920;4.492;2022-09-06T08:43:18;68649.56;;;25.21;76.63
44144;BME280;43510;51.920;4.492;2022-09-06T08:45:49;68669.75;;;25.37;75.75
44144;BME280;43510;51.920;4.492;2022-09-06T08:48:17;68684.84;;;25.48;74.90
44144;BME280;43510;51.920;4.492;2022-09-06T08:53:25;68707.00;;;25.71;74.45
44144;BME280;43510;51.920;4.492;2022-09-06T08:55:54;68713.09;;;25.74;74.54
44144;BME280;43510;51.920;4.492;2022-09-06T08:59:05;68732.28;;;25.91;75.00
44144;BME280;43510;51.920;4.492;2022-09-06T09:02:33;68738.06;;;25.98;75.71
44144;BME280;43510;51.920;4.492;2022-09-06T09:04:44;68752.72;;;26.12;74.40
44144;BME280;43510;51.920;4.492;2022-09-06T09:09:56;68773.66;;;26.30;73.40
44144;BME280;43510;51.920;4.492;2022-09-06T09:12:24;68798.22;;;26.48;72.72
44144;BME280;43510;51.920;4.492;2022-09-06T09:14:53;68805.84;;;26.59;71.88
44144;BME280;43510;51.920;4.492;2022-09-06T09:17:25;68818.56;;;26.66;70.78
44144;BME280;43510;51.920;4.492;2022-09-06T09:19:51;68806.97;;;26.60;71.08
44144;BME280;43510;51.920;4.492;2022-09-06T09:22:18;68794.56;;;26.49;71.19
44144;BME280;43510;51.920;4.492;2022-09-06T09:24:45;68811.78;;;26.60;71.07
44144;BME280;43510;51.920;4.492;2022-09-06T09:27:15;68808.22;;;26.64;70.63
44144;BME280;43510;51.920;4.492;2022-09-06T09:32:36;68835.66;;;26.83;70.50
44144;BME280;43510;51.920;4.492;2022-09-06T09:35:32;68845.28;;;26.92;70.81
44144;BME280;43510;51.920;4.492;2022-09-06T09:38:09;68853.47;;;27.04;70.04
44144;BME280;43510;51.920;4.492;2022-09-06T09:40:40;68856.84;;;27.07;69.70
44144;BME280;43510;51.920;4.492;2022-09-06T09:45:38;68910.69;;;27.48;69.37
44144;BME280;43510;51.920;4.492;2022-09-06T09:48:33;68930.34;;;27.73;69.23
44144;BME280;43510;51.920;4.492;2022-09-06T09:51:21;68927.53;;;27.71;68.10
44144;BME280;43510;51.920;4.492;2022-09-06T09:53:55;68918.31;;;27.60;67.88
44144;BME280;43510;51.920;4.492;2022-09-06T09:56:49;68919.47;;;27.61;67.69
44144;BME280;43510;51.920;4.492;2022-09-06T09:59:43;68915.38;;;27.55;68.42
44144;BME280;43510;51.920;4.492;2022-09-06T10:02:34;68920.16;;;27.64;67.65
44144;BME280;43510;51.920;4.492;2022-09-06T10:07:25;68925.69;;;27.67;68.82
44144;BME280;43510;51.920;4.492;2022-09-06T10:10:02;68951.00;;;27.87;68.02
44144;BME280;43510;51.920;4.492;2022-09-06T10:12:30;68996.38;;;28.30;66.00
44144;BME280;43510;51.920;4.492;2022-09-06T10:14:57;69064.25;;;28.91;64.62
44144;BME280;43510;51.920;4.492;2022-09-06T10:17:30;69089.44;;;29.18;63.06
44144;BME280;43510;51.920;4.492;2022-09-06T10:20:00;69120.63;;;29.36;62.10
44144;BME280;43510;51.920;4.492;2022-09-06T10:22:34;69131.75;;;29.53;61.88
44144;BME280;43510;51.920;4.492;2022-09-06T10:25:29;69155.28;;;29.70;60.90
44144;BME280;43510;51.920;4.492;2022-09-06T10:31:01;69106.84;;;29.31;61.34
44144;BME280;43510;51.920;4.492;2022-09-06T10:39:55;69068.81;;;28.95;63.20
44144;BME280;43510;51.920;4.492;2022-09-06T10:42:49;69071.34;;;29.02;63.63
44144;BME280;43510;51.920;4.492;2022-09-06T10:53:36;69042.19;;;28.71;64.35
44144;BME280;43510;51.920;4.492;2022-09-06T10:56:10;69048.44;;;28.76;64.38
44144;BME280;43510;51.920;4.492;2022-09-06T10:58:42;69057.47;;;28.85;64.04
44144;BME280;43510;51.920;4.492;2022-09-06T11:04:07;69074.56;;;29.02;63.96
44144;BME280;43510;51.920;4.492;2022-09-06T11:06:37;69088.03;;;29.12;63.21
44144;BME280;43510;51.920;4.492;2022-09-06T11:09:14;69091.00;;;29.17;63.46
44144;BME280;43510;51.920;4.492;2022-09-06T11:14:24;69100.50;;;29.23;62.55
44144;BME280;43510;51.920;4.492;2022-09-06T11:17:02;69108.72;;;29.26;62.23
44144;BME280;43510;51.920;4.492;2022-09-06T11:20:06;69120.75;;;29.39;61.58
44144;BME280;43510;51.920;4.492;2022-09-06T11:25:55;69124.84;;;29.45;61.41
44144;BME280;43510;51.920;4.492;2022-09-06T11:28:29;69139.69;;;29.60;61.77
44144;BME280;43510;51.920;4.492;2022-09-06T11:30:58;69172.28;;;29.85;60.79
44144;BME280;43510;51.920;4.492;2022-09-06T11:33:27;69186.69;;;30.02;60.17
44144;BME280;43510;51.920;4.492;2022-09-06T11:36:36;69200.47;;;30.08;58.03
44144;BME280;43510;51.920;4.492;2022-09-06T11:39:02;69158.22;;;29.75;56.95
44144;BME280;43510;51.920;4.492;2022-09-06T11:41:34;69146.91;;;29.65;57.60
44144;BME280;43510;51.920;4.492;2022-09-06T11:44:01;69149.63;;;29.65;57.47
44144;BME280;43510;51.920;4.492;2022-09-06T11:49:02;69195.63;;;30.08;54.92
44144;BME280;43510;51.920;4.492;2022-09-06T11:51:32;69167.88;;;29.83;55.48
44144;BME280;43510;51.920;4.492;2022-09-06T11:59:36;69181.59;;;29.98;54.47
44144;BME280;43510;51.920;4.492;2022-09-06T12:02:27;69181.72;;;30.00;54.72
44144;BME280;43510;51.920;4.492;2022-09-06T12:07:25;69182.03;;;29.96;53.78
44144;BME280;43510;51.920;4.492;2022-09-06T12:09:51;69170.00;;;29.83;54.68
44144;BME280;43510;51.920;4.492;2022-09-06T12:12:45;69167.28;;;29.83;54.47
44144;BME280;43510;51.920;4.492;2022-09-06T12:17:48;69150.56;;;29.73;53.58
44144;BME280;43510;51.920;4.492;2022-09-06T12:26:05;69174.66;;;29.89;52.68
44144;BME280;43510;51.920;4.492;2022-09-06T12:28:48;69187.69;;;30.01;52.58
44144;BME280;43510;51.920;4.492;2022-09-06T12:31:41;69203.69;;;30.18;51.73
44144;BME280;43510;51.920;4.492;2022-09-06T12:34:21;69185.56;;;30.01;51.24
44144;BME280;43510;51.920;4.492;2022-09-06T12:39:18;69142.50;;;29.63;51.36
44144;BME280;43510;51.920;4.492;2022-09-06T12:41:54;69129.94;;;29.49;51.49
44144;BME280;43510;51.920;4.492;2022-09-06T12:44:40;69144.38;;;29.57;51.87
44144;BME280;43510;51.920;4.492;2022-09-06T12:47:30;69127.69;;;29.47;51.84
44144;BME280;43510;51.920;4.492;2022-09-06T12:52:58;69133.91;;;29.53;51.29
44144;BME280;43510;51.920;4.492;2022-09-06T12:55:37;69136.84;;;29.58;46.41
44144;BME280;43510;51.920;4.492;2022-09-06T12:58:03;69152.56;;;29.70;46.29
44144;BME280;43510;51.920;4.492;2022-09-06T13:00:34;69162.78;;;29.79;45.90
44144;BME280;43510;51.920;4.492;2022-09-06T13:03:03;69194.50;;;30.07;45.89
44144;BME280;43510;51.920;4.492;2022-09-06T13:05:30;69141.50;;;29.65;47.01
44144;BME280;43510;51.920;4.492;2022-09-06T13:07:58;69119.19;;;29.40;47.40
44144;BME280;43510;51.920;4.492;2022-09-06T13:10:26;69114.66;;;29.36;46.69
44144;BME280;43510;51.920;4.492;2022-09-06T13:12:54;69130.94;;;29.48;45.41
44144;BME280;43510;51.920;4.492;2022-09-06T13:15:26;69139.13;;;29.60;44.31
44144;BME280;43510;51.920;4.492;2022-09-06T13:17:54;69132.19;;;29.51;45.42
44144;BME280;43510;51.920;4.492;2022-09-06T13:20:38;69143.97;;;29.59;45.85
44144;BME280;43510;51.920;4.492;2022-09-06T13:23:09;69152.56;;;29.70;45.33
44144;BME280;43510;51.920;4.492;2022-09-06T13:25:54;69174.97;;;29.85;44.96
44144;BME280;43510;51.920;4.492;2022-09-06T13:28:29;69176.38;;;29.91;44.90
44144;BME280;43510;51.920;4.492;2022-09-06T13:33:35;69162.78;;;29.79;44.98
44144;BME280;43510;51.920;4.492;2022-09-06T13:36:05;69152.13;;;29.72;44.79
44144;BME280;43510;51.920;4.492;2022-09-06T13:44:01;69184.84;;;29.98;41.42
44144;BME280;43510;51.920;4.492;2022-09-06T13:46:28;69207.84;;;30.14;40.35
44144;BME280;43510;51.920;4.492;2022-09-06T13:48:56;69198.44;;;30.11;40.27
44144;BME280;43510;51.920;4.492;2022-09-06T13:51:22;69194.34;;;30.05;39.68
44144;BME280;43510;51.920;4.492;2022-09-06T13:53:48;69180.91;;;29.95;40.72
44144;BME280;43510;51.920;4.492;2022-09-06T13:56:15;69182.03;;;29.96;41.70
44144;BME280;43510;51.920;4.492;2022-09-06T13:58:41;69190.84;;;29.99;41.96
44144;BME280;43510;51.920;4.492;2022-09-06T14:01:08;69190.25;;;29.98;42.63
44144;BME280;43510;51.920;4.492;2022-09-06T14:03:36;69193.34;;;30.06;42.57
44144;BME280;43510;51.920;4.492;2022-09-06T14:06:01;69199.00;;;30.11;42.94
44144;BME280;43510;51.920;4.492;2022-09-06T14:08:27;69202.41;;;30.14;42.67
44144;BME280;43510;51.920;4.492;2022-09-06T14:10:55;69186.56;;;30.00;43.11
44144;BME280;43510;51.920;4.492;2022-09-06T14:13:21;69166.28;;;29.84;43.07
44144;BME280;43510;51.920;4.492;2022-09-06T14:15:49;69140.81;;;29.61;43.46
44144;BME280;43510;51.920;4.492;2022-09-06T14:18:15;69124.72;;;29.42;44.00
44144;BME280;43510;51.920;4.492;2022-09-06T14:20:42;69123.16;;;29.43;43.95
44144;BME280;43510;51.920;4.492;2022-09-06T14:23:14;69128.66;;;29.46;43.61
44144;BME280;43510;51.920;4.492;2022-09-06T14:25:40;69118.59;;;29.39;43.40
44144;BME280;43510;51.920;4.492;2022-09-06T14:28:05;69099.22;;;29.19;44.23
44144;BME280;43510;51.920;4.492;2022-09-06T14:30:31;69086.66;;;29.06;44.78
44144;BME280;43510;51.920;4.492;2022-09-06T14:32:56;69072.63;;;28.96;45.45
44144;BME280;43510;51.920;4.492;2022-09-06T14:35:22;69067.53;;;28.91;45.58
44144;BME280;43510;51.920;4.492;2022-09-06T14:37:47;69059.06;;;28.84;45.87
44144;BME280;43510;51.920;4.492;2022-09-06T14:40:13;69042.63;;;28.69;45.67
44144;BME280;43510;51.920;4.492;2022-09-06T14:42:39;69011.06;;;28.43;45.69
44144;BME280;43510;51.920;4.492;2022-09-06T14:45:05;69004.72;;;28.35;46.17
44144;BME280;43510;51.920;4.492;2022-09-06T14:47:31;69005.41;;;28.38;46.06
44144;BME280;43510;51.920;4.492;2022-09-06T14:49:57;69018.44;;;28.50;46.31
44144;BME280;43510;51.920;4.492;2022-09-06T14:52:23;69040.50;;;28.69;46.26
44144;BME280;43510;51.920;4.492;2022-09-06T14:54:49;69064.72;;;28.89;45.62
44144;BME280;43510;51.920;4.492;2022-09-06T14:57:15;69063.00;;;28.87;45.41